Time;durP1;ratioP1;P1;durP2;ratioP2;P2;SDS_P1;SDS_P2;PMS_P1;PMS_P2;Temp;Humidity;BMP_temperature;BMP_pressure;BME280_temperature;BME280_humidity;BME280_pressure;Samples;Min_cycle;Max_cycle;Signal;HPM_P1;HPM_P2
2023/04/07 00:02:16;;;;;;;11.35;5.65;;;;;;;;;;5027113;28;20017;-69
2023/04/07 00:04:41;;;;;;;12.00;6.20;;;;;;;;;;5029764;28;20022;-67
2023/04/07 00:07:06;;;;;;;11.50;6.05;;;;;;;;;;5022544;28;20043;-68
2023/04/07 00:09:31;;;;;;;11.93;5.83;;;;;;;;;;5024072;28;20116;-67
2023/04/07 00:11:56;;;;;;;11.75;5.90;;;;;;;;;;5022613;28;20052;-68
2023/04/07 00:14:21;;;;;;;12.27;5.43;;;;;;;;;;5025723;28;20025;-68
2023/04/07 00:16:46;;;;;;;8.98;5.70;;;;;;;;;;5022019;28;20029;-67
2023/04/07 00:19:11;;;;;;;13.70;5.30;;;;;;;;;;5020717;28;20833;-68
2023/04/07 00:21:37;;;;;;;10.73;5.35;;;;;;;;;;5019328;28;20129;-68
2023/04/07 00:24:02;;;;;;;9.52;5.57;;;;;;;;;;5018969;28;20060;-67
2023/04/07 00:26:30;;;;;;;10.07;5.60;;;;;;;;;;5024449;28;20051;-67
2023/04/07 00:28:55;;;;;;;12.57;5.70;;;;;;;;;;5022044;28;20473;-68
2023/04/07 00:31:20;;;;;;;10.93;5.80;;;;;;;;;;5024007;28;20087;-69
2023/04/07 00:33:47;;;;;;;10.37;5.30;;;;;;;;;;5023302;28;20057;-67
2023/04/07 00:36:12;;;;;;;9.55;5.10;;;;;;;;;;5021291;28;20032;-68
2023/04/07 00:38:37;;;;;;;10.57;5.90;;;;;;;;;;5017399;28;20037;-68
2023/04/07 00:41:02;;;;;;;10.25;5.63;;;;;;;;;;5023565;28;20514;-68
2023/04/07 00:43:28;;;;;;;9.57;5.63;;;;;;;;;;5028413;28;20036;-68
2023/04/07 00:48:28;;;;;;;11.38;6.30;;;;;;;;;;5102534;22;20067;-70
2023/04/07 00:50:53;;;;;;;11.47;6.20;;;;;;;;;;4981107;28;20018;-66
2023/04/07 00:53:19;;;;;;;10.23;6.03;;;;;;;;;;4974260;28;20027;-66
2023/04/07 00:55:44;;;;;;;11.32;5.90;;;;;;;;;;4974312;28;20029;-67
2023/04/07 00:58:09;;;;;;;12.95;5.97;;;;;;;;;;4975450;28;20408;-66
2023/04/07 01:00:41;;;;;;;12.85;6.28;;;;;;;;;;4972617;28;20026;-67
2023/04/07 01:03:12;;;;;;;11.05;5.85;;;;;;;;;;4969002;28;20117;-68
2023/04/07 01:05:46;;;;;;;11.05;5.55;;;;;;;;;;4966926;28;20027;-65
2023/04/07 01:08:14;;;;;;;10.73;5.63;;;;;;;;;;4970171;28;20977;-67
2023/04/07 01:10:58;;;;;;;13.02;6.35;;;;;;;;;;4969410;28;20417;-66
2023/04/07 01:13:33;;;;;;;10.35;5.63;;;;;;;;;;4970826;28;20030;-68
2023/04/07 01:15:59;;;;;;;10.95;5.75;;;;;;;;;;4979283;28;20041;-65
2023/04/07 01:18:33;;;;;;;12.43;6.15;;;;;;;;;;4973695;28;20023;-66
2023/04/07 01:21:01;;;;;;;11.32;6.10;;;;;;;;;;4971962;28;20022;-65
2023/04/07 01:23:41;;;;;;;12.30;6.28;;;;;;;;;;4969729;28;20023;-68
2023/04/07 01:26:16;;;;;;;12.63;6.70;;;;;;;;;;4977817;28;20030;-66
2023/04/07 01:28:56;;;;;;;8.77;4.90;;;;;;;;;;4965960;28;20027;-68
2023/04/07 01:31:22;;;;;;;8.18;4.97;;;;;;;;;;4972255;28;20525;-67
2023/04/07 01:33:48;;;;;;;10.18;5.30;;;;;;;;;;4964691;28;20023;-68
2023/04/07 01:36:15;;;;;;;10.43;5.18;;;;;;;;;;4975204;28;20035;-67
2023/04/07 01:38:40;;;;;;;10.23;5.45;;;;;;;;;;4975995;28;20105;-67
2023/04/07 01:41:07;;;;;;;10.75;5.22;;;;;;;;;;4976609;28;20448;-66
2023/04/07 01:43:32;;;;;;;8.85;5.03;;;;;;;;;;4966385;28;20026;-67
2023/04/07 01:45:58;;;;;;;10.60;5.30;;;;;;;;;;4972323;28;20468;-66
2023/04/07 01:48:24;;;;;;;9.70;5.45;;;;;;;;;;4970947;28;20494;-68
2023/04/07 01:50:49;;;;;;;9.68;5.00;;;;;;;;;;4970195;28;20022;-66
2023/04/07 01:53:15;;;;;;;8.63;5.20;;;;;;;;;;4971766;28;20014;-67
2023/04/07 01:55:41;;;;;;;10.55;5.15;;;;;;;;;;4973296;28;20175;-66
2023/04/07 01:58:07;;;;;;;9.95;5.00;;;;;;;;;;4971527;28;20116;-65
2023/04/07 02:00:33;;;;;;;9.63;5.23;;;;;;;;;;4975243;28;20510;-66
2023/04/07 02:03:03;;;;;;;9.82;5.38;;;;;;;;;;4973011;28;20023;-67
2023/04/07 02:05:29;;;;;;;9.90;5.03;;;;;;;;;;4980095;28;20030;-66
2023/04/07 02:08:00;;;;;;;9.07;5.10;;;;;;;;;;4987119;28;20014;-68
2023/04/07 02:10:27;;;;;;;9.52;5.18;;;;;;;;;;4979694;28;20059;-67
2023/04/07 02:12:52;;;;;;;10.23;5.30;;;;;;;;;;4982935;28;20121;-71
2023/04/07 02:15:18;;;;;;;9.85;4.88;;;;;;;;;;4974645;28;20054;-66
2023/04/07 02:17:46;;;;;;;9.60;5.43;;;;;;;;;;4978494;28;20062;-66
2023/04/07 02:20:12;;;;;;;9.70;5.22;;;;;;;;;;4976319;28;20034;-69
2023/04/07 02:22:38;;;;;;;9.85;5.10;;;;;;;;;;4975965;28;20118;-68
2023/04/07 02:25:22;;;;;;;9.82;5.35;;;;;;;;;;4985325;28;20397;-68
2023/04/07 02:27:47;;;;;;;10.18;5.05;;;;;;;;;;4981948;28;20085;-68
2023/04/07 02:30:13;;;;;;;9.83;4.80;;;;;;;;;;4981610;28;20019;-67
2023/04/07 02:32:38;;;;;;;9.33;5.03;;;;;;;;;;4982022;28;20042;-68
2023/04/07 02:35:03;;;;;;;9.88;4.55;;;;;;;;;;4973287;28;20445;-72
2023/04/07 02:37:28;;;;;;;9.83;5.00;;;;;;;;;;4974639;28;20035;-67
2023/04/07 02:39:53;;;;;;;8.48;4.63;;;;;;;;;;4979260;28;21006;-70
2023/04/07 02:42:18;;;;;;;9.00;5.07;;;;;;;;;;4973522;28;20022;-66
2023/04/07 02:44:43;;;;;;;10.20;4.93;;;;;;;;;;4973507;28;20053;-67
2023/04/07 02:47:09;;;;;;;9.43;4.63;;;;;;;;;;4967517;28;20030;-69
2023/04/07 02:49:34;;;;;;;10.03;4.73;;;;;;;;;;4972583;28;20026;-67
2023/04/07 02:51:59;;;;;;;10.25;4.68;;;;;;;;;;4974288;28;20022;-66
2023/04/07 02:54:24;;;;;;;8.85;4.78;;;;;;;;;;4976889;28;20545;-67
2023/04/07 02:56:50;;;;;;;10.32;5.10;;;;;;;;;;4976051;28;20089;-68
2023/04/07 02:59:15;;;;;;;10.02;5.07;;;;;;;;;;4971533;28;20018;-65
2023/04/07 03:01:40;;;;;;;9.63;5.30;;;;;;;;;;4979829;28;20394;-68
2023/04/07 03:04:05;;;;;;;8.25;4.30;;;;;;;;;;4978233;28;20116;-66
2023/04/07 03:06:30;;;;;;;8.65;4.50;;;;;;;;;;4977270;28;20023;-67
2023/04/07 03:08:56;;;;;;;9.85;5.28;;;;;;;;;;4970572;28;20058;-66
2023/04/07 03:11:21;;;;;;;8.38;4.30;;;;;;;;;;4971880;28;20049;-67
2023/04/07 03:13:46;;;;;;;9.32;4.70;;;;;;;;;;4982114;28;20026;-67
2023/04/07 03:16:11;;;;;;;8.93;4.37;;;;;;;;;;4970432;28;20683;-65
2023/04/07 03:18:36;;;;;;;8.40;4.57;;;;;;;;;;4976345;28;20043;-68
2023/04/07 03:21:02;;;;;;;10.07;5.17;;;;;;;;;;4974342;28;20027;-66
2023/04/07 03:23:28;;;;;;;10.00;5.20;;;;;;;;;;4970497;28;20042;-67
2023/04/07 03:25:53;;;;;;;11.20;5.22;;;;;;;;;;4977681;28;20030;-69
2023/04/07 03:28:18;;;;;;;9.07;4.57;;;;;;;;;;4978614;28;20512;-66
2023/04/07 03:30:43;;;;;;;10.88;5.15;;;;;;;;;;4976838;28;20081;-68
2023/04/07 03:33:09;;;;;;;9.55;4.95;;;;;;;;;;4970822;28;20031;-65
2023/04/07 03:35:34;;;;;;;10.38;4.72;;;;;;;;;;4975193;28;20026;-66
2023/04/07 03:37:59;;;;;;;10.27;5.33;;;;;;;;;;4976265;28;20027;-67
2023/04/07 03:40:24;;;;;;;10.33;5.17;;;;;;;;;;4980882;28;20544;-66
2023/04/07 03:42:50;;;;;;;11.10;5.10;;;;;;;;;;4976929;28;20030;-66
2023/04/07 03:45:16;;;;;;;12.20;5.37;;;;;;;;;;4971733;28;20466;-68
2023/04/07 03:47:41;;;;;;;10.38;5.00;;;;;;;;;;4971904;28;20023;-68
2023/04/07 03:50:06;;;;;;;9.45;5.05;;;;;;;;;;4979246;28;20031;-67
2023/04/07 03:52:32;;;;;;;9.50;5.27;;;;;;;;;;4984028;28;20022;-66
2023/04/07 03:54:57;;;;;;;10.85;5.57;;;;;;;;;;4970367;28;20473;-66
2023/04/07 03:57:22;;;;;;;10.20;5.33;;;;;;;;;;4971794;28;20035;-67
2023/04/07 03:59:50;;;;;;;10.30;5.13;;;;;;;;;;4965357;28;20027;-68
2023/04/07 04:02:15;;;;;;;9.05;4.95;;;;;;;;;;4972730;28;20503;-66
2023/04/07 04:04:40;;;;;;;10.35;4.60;;;;;;;;;;4977725;28;20018;-66
2023/04/07 04:07:05;;;;;;;9.75;5.32;;;;;;;;;;4975389;28;20027;-68
2023/04/07 04:09:30;;;;;;;9.65;4.75;;;;;;;;;;4968331;28;20481;-66
2023/04/07 04:11:56;;;;;;;9.13;4.80;;;;;;;;;;4969745;28;20018;-66
2023/04/07 04:14:21;;;;;;;10.65;5.28;;;;;;;;;;4967823;28;20030;-64
2023/04/07 04:16:46;;;;;;;12.07;5.50;;;;;;;;;;4969397;28;20036;-68
2023/04/07 04:19:11;;;;;;;10.40;5.28;;;;;;;;;;4975698;28;20456;-70
2023/04/07 04:21:36;;;;;;;10.13;4.90;;;;;;;;;;4968617;28;20026;-67
2023/04/07 04:24:02;;;;;;;10.90;5.20;;;;;;;;;;4976490;28;20036;-68
2023/04/07 04:26:28;;;;;;;8.63;4.50;;;;;;;;;;4980887;28;20125;-68
2023/04/07 04:28:54;;;;;;;10.43;4.80;;;;;;;;;;4978738;28;20018;-69
2023/04/07 04:31:19;;;;;;;9.05;5.00;;;;;;;;;;4968101;28;20034;-69
2023/04/07 04:33:44;;;;;;;9.93;5.05;;;;;;;;;;4978558;28;20034;-67
2023/04/07 04:36:09;;;;;;;10.15;4.90;;;;;;;;;;4967506;28;20030;-67
2023/04/07 04:38:34;;;;;;;11.65;5.22;;;;;;;;;;4973833;28;20031;-67
2023/04/07 04:41:00;;;;;;;8.32;4.68;;;;;;;;;;4974933;28;20026;-69
2023/04/07 04:43:25;;;;;;;10.70;5.30;;;;;;;;;;4977132;28;20023;-67
2023/04/07 04:45:50;;;;;;;12.73;5.30;;;;;;;;;;4973753;28;20724;-68
2023/04/07 04:48:16;;;;;;;9.87;5.40;;;;;;;;;;4970056;28;20023;-67
2023/04/07 04:50:42;;;;;;;10.00;4.72;;;;;;;;;;4968119;28;20030;-67
2023/04/07 04:53:07;;;;;;;11.20;5.82;;;;;;;;;;4974849;28;20359;-67
2023/04/07 04:55:32;;;;;;;9.68;5.03;;;;;;;;;;4971572;28;20031;-67
2023/04/07 04:57:58;;;;;;;10.07;5.35;;;;;;;;;;4971283;28;20035;-66
2023/04/07 05:00:23;;;;;;;11.02;4.90;;;;;;;;;;4971796;28;20015;-68
2023/04/07 05:02:48;;;;;;;9.47;4.90;;;;;;;;;;4975253;28;20037;-68
2023/04/07 05:05:13;;;;;;;15.45;5.13;;;;;;;;;;4970258;28;20082;-69
2023/04/07 05:07:39;;;;;;;10.07;5.10;;;;;;;;;;4976427;28;20125;-67
2023/04/07 05:10:05;;;;;;;9.05;4.80;;;;;;;;;;4976094;28;20029;-69
2023/04/07 05:12:32;;;;;;;9.93;5.10;;;;;;;;;;4971513;28;20022;-69
2023/04/07 05:14:57;;;;;;;9.95;4.97;;;;;;;;;;4963693;28;20106;-70
2023/04/07 05:17:22;;;;;;;11.18;5.60;;;;;;;;;;4964097;28;20102;-65
2023/04/07 05:19:47;;;;;;;10.32;5.10;;;;;;;;;;4967370;28;20541;-68
2023/04/07 05:22:15;;;;;;;9.50;5.43;;;;;;;;;;4968661;28;20069;-68
2023/04/07 05:24:41;;;;;;;10.38;5.30;;;;;;;;;;4970566;28;20031;-67
2023/04/07 05:27:06;;;;;;;10.52;5.43;;;;;;;;;;4969250;28;20035;-68
2023/04/07 05:29:31;;;;;;;10.50;5.43;;;;;;;;;;4971903;28;20081;-71
2023/04/07 05:31:56;;;;;;;10.43;5.10;;;;;;;;;;4982088;28;20034;-69
2023/04/07 05:34:22;;;;;;;9.70;4.82;;;;;;;;;;4976822;28;20471;-67
2023/04/07 05:36:47;;;;;;;12.23;5.60;;;;;;;;;;4973480;28;20458;-68
2023/04/07 05:39:12;;;;;;;11.07;5.47;;;;;;;;;;4965732;28;20041;-67
2023/04/07 05:41:40;;;;;;;12.65;5.47;;;;;;;;;;4971829;28;20486;-67
2023/04/07 05:44:05;;;;;;;;;;;;;;;;;;4971433;28;20023;-67
2023/04/07 05:46:30;;;;;;;10.48;4.75;;;;;;;;;;4971777;28;20325;-65
2023/04/07 05:48:56;;;;;;;10.53;5.37;;;;;;;;;;4971793;28;20065;-67
2023/04/07 05:51:21;;;;;;;9.18;4.57;;;;;;;;;;4973687;28;20019;-67
2023/04/07 05:53:46;;;;;;;11.35;5.68;;;;;;;;;;4974757;28;20034;-66
2023/04/07 05:56:11;;;;;;;11.15;4.97;;;;;;;;;;4975412;28;20045;-68
2023/04/07 05:58:36;;;;;;;10.17;5.30;;;;;;;;;;4970997;28;20486;-67
2023/04/07 06:01:02;;;;;;;10.13;5.55;;;;;;;;;;4971579;28;20073;-67
2023/04/07 06:03:27;;;;;;;10.35;5.20;;;;;;;;;;4973069;28;20014;-65
2023/04/07 06:05:52;;;;;;;10.80;5.55;;;;;;;;;;4974360;28;20062;-68
2023/04/07 06:08:17;;;;;;;11.33;5.47;;;;;;;;;;4966116;28;20085;-66
2023/04/07 06:10:43;;;;;;;9.88;5.20;;;;;;;;;;4970035;28;20545;-66
2023/04/07 06:13:08;;;;;;;12.00;5.10;;;;;;;;;;4973368;28;20019;-68
2023/04/07 06:15:33;;;;;;;9.32;5.03;;;;;;;;;;4973229;28;20043;-69
2023/04/07 06:17:59;;;;;;;10.13;4.78;;;;;;;;;;4966732;28;20022;-66
2023/04/07 06:20:26;;;;;;;9.57;4.87;;;;;;;;;;4974577;28;20023;-67
2023/04/07 06:22:51;;;;;;;10.20;5.00;;;;;;;;;;4970512;28;20998;-66
2023/04/07 06:25:16;;;;;;;10.53;5.20;;;;;;;;;;4971010;28;20019;-66
2023/04/07 06:27:42;;;;;;;12.60;5.20;;;;;;;;;;4973910;28;20034;-68
2023/04/07 06:30:07;;;;;;;11.38;5.35;;;;;;;;;;4973609;28;20062;-65
2023/04/07 06:32:32;;;;;;;11.63;6.07;;;;;;;;;;4970224;28;20034;-66
2023/04/07 06:34:58;;;;;;;9.45;5.38;;;;;;;;;;4973602;28;20327;-67
2023/04/07 06:37:24;;;;;;;10.27;5.13;;;;;;;;;;4968964;28;20585;-66
2023/04/07 06:39:49;;;;;;;9.68;5.22;;;;;;;;;;4977493;28;20026;-67
2023/04/07 06:42:14;;;;;;;9.37;5.00;;;;;;;;;;4970733;28;20421;-66
2023/04/07 06:44:39;;;;;;;11.43;5.23;;;;;;;;;;4971596;28;20081;-66
2023/04/07 06:47:04;;;;;;;8.90;4.85;;;;;;;;;;4971389;28;20034;-66
2023/04/07 06:49:31;;;;;;;13.32;5.07;;;;;;;;;;4974117;28;20030;-66
2023/04/07 06:51:56;;;;;;;10.02;5.20;;;;;;;;;;4968805;28;20109;-67
2023/04/07 06:54:21;;;;;;;9.23;4.47;;;;;;;;;;4974814;28;20073;-66
2023/04/07 06:56:46;;;;;;;11.65;5.80;;;;;;;;;;4963959;28;20028;-65
2023/04/07 06:59:11;;;;;;;10.23;5.22;;;;;;;;;;4973325;28;20258;-65
2023/04/07 07:01:36;;;;;;;9.95;5.32;;;;;;;;;;4962116;28;20050;-68
2023/04/07 07:04:02;;;;;;;10.18;5.00;;;;;;;;;;4971671;28;20031;-67
2023/04/07 07:06:27;;;;;;;13.25;5.35;;;;;;;;;;4968150;28;20447;-67
2023/04/07 07:08:52;;;;;;;11.38;5.70;;;;;;;;;;4967549;28;20027;-66
2023/04/07 07:11:17;;;;;;;12.15;5.45;;;;;;;;;;4971593;28;20038;-66
2023/04/07 07:13:43;;;;;;;11.50;5.77;;;;;;;;;;4973789;28;20033;-66
2023/04/07 07:16:09;;;;;;;13.55;6.28;;;;;;;;;;4971061;28;20030;-66
2023/04/07 07:18:35;;;;;;;11.88;5.55;;;;;;;;;;4972043;28;20031;-69
2023/04/07 07:21:00;;;;;;;11.25;5.68;;;;;;;;;;4974778;28;20149;-66
2023/04/07 07:23:26;;;;;;;11.82;5.63;;;;;;;;;;4972634;28;20098;-69
2023/04/07 07:25:51;;;;;;;10.82;5.65;;;;;;;;;;4974060;28;20045;-68
2023/04/07 07:28:16;;;;;;;12.32;5.63;;;;;;;;;;4974215;28;20034;-67
2023/04/07 07:30:41;;;;;;;11.90;5.70;;;;;;;;;;4974398;28;20058;-67
2023/04/07 07:33:06;;;;;;;11.80;5.50;;;;;;;;;;4971135;28;20422;-67
2023/04/07 07:35:31;;;;;;;11.10;5.27;;;;;;;;;;4971137;28;20038;-70
2023/04/07 07:37:57;;;;;;;11.77;5.77;;;;;;;;;;4972127;28;20014;-66
2023/04/07 07:40:22;;;;;;;12.43;5.20;;;;;;;;;;4971395;28;20540;-67
2023/04/07 07:42:47;;;;;;;11.30;5.43;;;;;;;;;;4971226;28;20019;-69
2023/04/07 07:45:12;;;;;;;13.95;6.00;;;;;;;;;;4967843;28;20041;-68
2023/04/07 07:47:37;;;;;;;10.43;5.90;;;;;;;;;;4974250;28;20023;-68
2023/04/07 07:50:03;;;;;;;12.67;6.47;;;;;;;;;;4969450;28;20450;-67
2023/04/07 07:52:28;;;;;;;12.95;6.25;;;;;;;;;;4970608;28;20027;-66
2023/04/07 07:54:54;;;;;;;12.43;6.00;;;;;;;;;;4959288;28;20015;-67
2023/04/07 07:57:19;;;;;;;10.00;5.38;;;;;;;;;;4973662;28;20027;-66
2023/04/07 07:59:45;;;;;;;10.60;5.43;;;;;;;;;;4971568;28;20066;-67
2023/04/07 08:02:10;;;;;;;12.35;5.70;;;;;;;;;;4973114;28;20429;-66
2023/04/07 08:04:35;;;;;;;12.35;5.60;;;;;;;;;;4968796;28;20402;-66
2023/04/07 08:07:01;;;;;;;11.27;5.53;;;;;;;;;;4979674;28;20077;-66
2023/04/07 08:09:26;;;;;;;11.05;5.25;;;;;;;;;;4974927;28;20398;-67
2023/04/07 08:11:51;;;;;;;10.43;5.63;;;;;;;;;;4978054;28;20053;-70
2023/04/07 08:14:16;;;;;;;10.40;5.37;;;;;;;;;;4968815;28;20026;-66
2023/04/07 08:16:42;;;;;;;11.93;5.73;;;;;;;;;;4972357;28;20031;-66
2023/04/07 08:19:07;;;;;;;9.52;4.90;;;;;;;;;;4973599;28;20026;-67
2023/04/07 08:21:33;;;;;;;11.18;5.20;;;;;;;;;;4971062;28;20109;-66
2023/04/07 08:23:58;;;;;;;13.43;6.03;;;;;;;;;;4969941;28;20553;-67
2023/04/07 08:26:23;;;;;;;9.68;5.57;;;;;;;;;;4969334;28;20035;-66
2023/04/07 08:28:51;;;;;;;11.40;5.83;;;;;;;;;;4973830;28;20470;-67
2023/04/07 08:31:17;;;;;;;11.80;5.88;;;;;;;;;;4963870;28;20038;-69
2023/04/07 08:33:42;;;;;;;11.57;5.87;;;;;;;;;;4973672;28;20027;-68
2023/04/07 08:36:07;;;;;;;13.25;6.32;;;;;;;;;;4969770;28;20438;-70
2023/04/07 08:38:32;;;;;;;11.27;6.30;;;;;;;;;;4964526;28;20481;-69
2023/04/07 08:41:00;;;;;;;11.82;5.85;;;;;;;;;;4962591;28;20023;-67
2023/04/07 08:43:25;;;;;;;10.60;5.75;;;;;;;;;;4971404;28;20077;-66
2023/04/07 08:45:51;;;;;;;10.57;5.72;;;;;;;;;;4971643;28;20026;-69
2023/04/07 08:48:17;;;;;;;11.75;6.25;;;;;;;;;;4970111;28;20097;-67
2023/04/07 08:50:43;;;;;;;13.23;6.13;;;;;;;;;;4970853;28;20061;-67
2023/04/07 08:53:09;;;;;;;12.05;5.50;;;;;;;;;;4964468;28;20054;-67
2023/04/07 08:55:35;;;;;;;11.98;6.03;;;;;;;;;;4954607;28;20134;-66
2023/04/07 08:58:00;;;;;;;12.18;6.30;;;;;;;;;;4954623;28;20020;-67
2023/04/07 09:00:25;;;;;;;12.53;5.80;;;;;;;;;;4955789;28;20027;-67
2023/04/07 09:02:51;;;;;;;10.95;6.38;;;;;;;;;;4977044;28;20058;-68
2023/04/07 09:05:16;;;;;;;14.57;5.75;;;;;;;;;;4972298;28;20022;-68
2023/04/07 09:07:44;;;;;;;10.30;5.60;;;;;;;;;;4971590;28;20102;-67
2023/04/07 09:10:10;;;;;;;10.43;6.03;;;;;;;;;;4972556;28;20498;-67
2023/04/07 09:12:35;;;;;;;11.07;6.22;;;;;;;;;;4972555;28;20023;-67
2023/04/07 09:15:00;;;;;;;12.00;5.83;;;;;;;;;;4971173;28;20038;-69
2023/04/07 09:17:26;;;;;;;11.10;5.87;;;;;;;;;;4965428;28;20027;-67
2023/04/07 09:19:51;;;;;;;12.88;6.97;;;;;;;;;;4972430;28;20422;-68
2023/04/07 09:22:33;;;;;;;11.13;5.70;;;;;;;;;;4966737;28;20019;-67
2023/04/07 09:25:08;;;;;;;12.18;6.07;;;;;;;;;;4961270;28;20454;-67
2023/04/07 09:27:33;;;;;;;9.65;5.50;;;;;;;;;;4959136;28;20026;-67
2023/04/07 09:30:12;;;;;;;10.45;5.60;;;;;;;;;;4967171;28;20019;-65
2023/04/07 09:32:37;;;;;;;12.32;5.80;;;;;;;;;;4962899;28;20442;-67
2023/04/07 09:35:02;;;;;;;9.57;5.23;;;;;;;;;;4971266;28;20029;-67
2023/04/07 09:37:27;;;;;;;10.50;5.03;;;;;;;;;;4970661;28;20478;-66
2023/04/07 09:39:53;;;;;;;10.95;5.35;;;;;;;;;;4964598;28;20458;-66
2023/04/07 09:42:19;;;;;;;12.25;5.55;;;;;;;;;;4952602;28;20031;-66
2023/04/07 09:44:44;;;;;;;10.35;5.47;;;;;;;;;;4953104;28;20030;-68
2023/04/07 09:47:10;;;;;;;10.53;5.97;;;;;;;;;;4952419;28;20035;-66
2023/04/07 09:49:47;;;;;;;11.63;5.28;;;;;;;;;;4952701;28;20586;-67
2023/04/07 09:52:12;;;;;;;12.68;5.43;;;;;;;;;;4962765;28;20031;-68
2023/04/07 09:54:40;;;;;;;12.60;6.00;;;;;;;;;;4966704;28;20493;-68
2023/04/07 09:57:07;;;;;;;10.02;6.00;;;;;;;;;;4971470;28;20406;-69
2023/04/07 09:59:35;;;;;;;9.18;4.93;;;;;;;;;;4973333;28;20030;-68
2023/04/07 10:02:01;;;;;;;10.98;5.38;;;;;;;;;;4971273;28;20027;-66
2023/04/07 10:04:26;;;;;;;11.57;5.53;;;;;;;;;;4971408;28;20085;-66
2023/04/07 10:06:53;;;;;;;10.73;5.15;;;;;;;;;;4971481;28;20027;-76
2023/04/07 10:09:18;;;;;;;10.57;5.35;;;;;;;;;;4972027;28;20037;-68
2023/04/07 10:11:44;;;;;;;11.38;5.57;;;;;;;;;;4970894;28;20011;-65
2023/04/07 10:14:09;;;;;;;10.32;5.15;;;;;;;;;;4952621;28;20027;-65
2023/04/07 10:16:36;;;;;;;9.38;5.13;;;;;;;;;;4952101;28;20465;-66
2023/04/07 10:19:01;;;;;;;;;;;;;;;;;;4954401;28;20482;-66
2023/04/07 10:21:26;;;;;;;8.38;3.10;;;;;;;;;;4975983;28;19906;-66
2023/04/07 10:24:03;;;;;;;8.67;3.80;;;;;;;;;;4976873;28;20063;-68
2023/04/07 10:26:29;;;;;;;9.77;3.58;;;;;;;;;;4975988;28;20034;-69
2023/04/07 10:28:58;;;;;;;7.93;3.38;;;;;;;;;;4975558;28;20034;-67
2023/04/07 10:31:23;;;;;;;7.18;3.30;;;;;;;;;;4976711;28;20390;-67
2023/04/07 10:33:48;;;;;;;8.30;3.60;;;;;;;;;;4959288;28;20463;-67
2023/04/07 10:36:16;;;;;;;7.70;3.37;;;;;;;;;;4972112;28;20504;-66
2023/04/07 10:38:41;;;;;;;7.93;3.70;;;;;;;;;;4968980;28;20110;-68
2023/04/07 10:41:25;;;;;;;7.00;3.40;;;;;;;;;;4956251;28;20094;-68
2023/04/07 10:43:50;;;;;;;8.15;3.95;;;;;;;;;;4968391;28;20018;-67
2023/04/07 10:46:15;;;;;;;8.27;3.70;;;;;;;;;;4989515;28;20496;-67
2023/04/07 10:48:40;;;;;;;8.17;4.20;;;;;;;;;;4973782;28;20039;-69
2023/04/07 10:51:06;;;;;;;8.85;4.45;;;;;;;;;;4974153;28;20026;-67
2023/04/07 10:53:32;;;;;;;9.13;3.97;;;;;;;;;;4957046;28;20031;-68
2023/04/07 10:55:58;;;;;;;7.35;3.92;;;;;;;;;;4955862;28;20028;-67
2023/04/07 10:58:29;;;;;;;8.60;3.92;;;;;;;;;;4955879;28;20382;-68
2023/04/07 11:01:07;;;;;;;7.90;3.85;;;;;;;;;;4956358;28;20023;-68
2023/04/07 11:03:33;;;;;;;9.40;3.78;;;;;;;;;;4963000;28;20454;-67
2023/04/07 11:06:11;;;;;;;7.53;3.70;;;;;;;;;;4975077;28;20023;-68
2023/04/07 11:08:36;;;;;;;;;;;;;;;;;;4976118;28;20430;-68
2023/04/07 11:11:07;;;;;;;8.98;3.72;;;;;;;;;;4977219;28;20275;-67
2023/04/07 11:13:39;;;;;;;8.40;3.63;;;;;;;;;;4973805;28;20110;-68
2023/04/07 11:16:04;;;;;;;7.68;3.70;;;;;;;;;;4958964;28;20027;-67
2023/04/07 11:18:30;;;;;;;8.13;3.70;;;;;;;;;;4969780;28;20031;-66
2023/04/07 11:20:57;;;;;;;8.50;3.72;;;;;;;;;;4976392;28;20029;-67
2023/04/07 11:23:24;;;;;;;8.50;3.88;;;;;;;;;;4961552;28;20053;-66
2023/04/07 11:25:49;;;;;;;;;;;;;;;;;;4984960;28;20019;-67
2023/04/07 11:28:14;;;;;;;6.82;3.38;;;;;;;;;;4985768;28;19912;-66
2023/04/07 11:30:44;;;;;;;7.57;3.60;;;;;;;;;;4985817;28;20076;-67
2023/04/07 11:33:13;;;;;;;9.15;3.95;;;;;;;;;;4982297;28;20423;-68
2023/04/07 11:35:45;;;;;;;7.55;3.83;;;;;;;;;;4984560;28;20014;-66
2023/04/07 11:38:11;;;;;;;8.77;3.78;;;;;;;;;;4974769;28;20031;-66
2023/04/07 11:40:37;;;;;;;8.50;4.10;;;;;;;;;;4974639;28;20482;-66
2023/04/07 11:43:14;;;;;;;8.68;4.47;;;;;;;;;;4965815;28;20035;-66
2023/04/07 11:45:39;;;;;;;9.85;4.32;;;;;;;;;;4974107;28;20109;-67
2023/04/07 11:48:04;;;;;;;8.35;4.20;;;;;;;;;;4973407;28;20510;-68
2023/04/07 11:50:39;;;;;;;9.00;4.40;;;;;;;;;;4964319;28;20035;-68
2023/04/07 11:53:05;;;;;;;9.90;4.90;;;;;;;;;;4955441;28;20024;-66
2023/04/07 11:55:30;;;;;;;9.03;4.67;;;;;;;;;;4956962;28;20041;-66
2023/04/07 11:58:04;;;;;;;7.40;4.00;;;;;;;;;;4958883;29;20082;-68
2023/04/07 12:00:29;;;;;;;9.85;4.40;;;;;;;;;;4959678;28;20015;-68
2023/04/07 12:02:55;;;;;;;9.70;4.63;;;;;;;;;;4977739;28;20082;-67
2023/04/07 12:05:20;;;;;;;9.73;4.65;;;;;;;;;;4971130;28;20533;-67
2023/04/07 12:07:52;;;;;;;9.30;4.60;;;;;;;;;;4969872;28;20027;-67
2023/04/07 12:10:18;;;;;;;8.48;4.38;;;;;;;;;;4974821;28;20343;-67
2023/04/07 12:12:45;;;;;;;10.95;5.20;;;;;;;;;;4974284;28;20669;-66
2023/04/07 12:15:10;;;;;;;10.68;5.13;;;;;;;;;;4974887;28;20035;-69
2023/04/07 12:17:35;;;;;;;10.07;5.10;;;;;;;;;;4971452;28;20027;-66
2023/04/07 12:20:01;;;;;;;12.35;5.05;;;;;;;;;;4974388;28;20026;-68
2023/04/07 12:22:27;;;;;;;9.85;5.00;;;;;;;;;;4974218;28;20033;-67
2023/04/07 12:24:52;;;;;;;10.70;5.00;;;;;;;;;;4968777;28;20102;-67
2023/04/07 12:27:17;;;;;;;10.93;5.30;;;;;;;;;;4956237;28;20170;-68
2023/04/07 12:29:42;;;;;;;9.65;4.72;;;;;;;;;;4971783;28;20031;-69
2023/04/07 12:32:08;;;;;;;9.48;5.00;;;;;;;;;;4972295;28;20030;-66
2023/04/07 12:34:36;;;;;;;8.33;4.63;;;;;;;;;;4954268;29;20026;-67
2023/04/07 12:37:01;;;;;;;10.70;5.32;;;;;;;;;;4953757;28;20039;-67
2023/04/07 12:39:26;;;;;;;10.00;4.88;;;;;;;;;;4954803;28;20486;-69
2023/04/07 12:41:52;;;;;;;10.35;5.38;;;;;;;;;;4953867;28;20029;-67
2023/04/07 12:44:17;;;;;;;10.25;5.28;;;;;;;;;;4958182;28;20022;-69
2023/04/07 12:46:42;;;;;;;10.47;5.80;;;;;;;;;;4967924;28;20035;-66
2023/04/07 12:49:07;;;;;;;13.13;5.63;;;;;;;;;;4968061;28;20038;-67
2023/04/07 12:51:32;;;;;;;9.20;5.30;;;;;;;;;;4973834;28;20019;-67
2023/04/07 12:53:59;;;;;;;12.48;5.57;;;;;;;;;;4971997;28;20019;-66
2023/04/07 12:56:24;;;;;;;9.65;5.70;;;;;;;;;;4972414;28;20039;-67
2023/04/07 12:58:50;;;;;;;10.18;5.43;;;;;;;;;;4966910;28;20026;-66
2023/04/07 13:01:15;;;;;;;11.47;4.83;;;;;;;;;;4973027;28;20026;-68
2023/04/07 13:03:40;;;;;;;15.18;6.22;;;;;;;;;;4973383;28;20387;-66
2023/04/07 13:06:05;;;;;;;10.50;5.17;;;;;;;;;;4956692;28;20494;-67
2023/04/07 13:08:30;;;;;;;11.30;6.07;;;;;;;;;;4965682;28;20022;-67
2023/04/07 13:10:56;;;;;;;10.73;5.23;;;;;;;;;;4970068;28;20023;-68
2023/04/07 13:13:22;;;;;;;11.70;5.90;;;;;;;;;;4966235;28;20027;-67
2023/04/07 13:15:47;;;;;;;9.88;5.70;;;;;;;;;;4965066;28;20360;-67
2023/04/07 13:18:13;;;;;;;11.93;5.95;;;;;;;;;;4961515;28;20035;-68
2023/04/07 13:20:38;;;;;;;8.75;5.05;;;;;;;;;;4973061;28;20106;-67
2023/04/07 13:23:03;;;;;;;10.65;5.70;;;;;;;;;;4959945;28;20541;-68
2023/04/07 13:25:29;;;;;;;9.57;5.10;;;;;;;;;;4972558;28;20081;-67
2023/04/07 13:27:54;;;;;;;9.55;5.22;;;;;;;;;;4969233;28;20023;-66
2023/04/07 13:30:19;;;;;;;12.23;6.18;;;;;;;;;;4969079;28;20034;-69
2023/04/07 13:32:47;;;;;;;11.23;5.20;;;;;;;;;;4970581;28;20066;-67
2023/04/07 13:35:14;;;;;;;11.00;5.20;;;;;;;;;;4972278;28;20030;-68
2023/04/07 13:37:39;;;;;;;10.20;5.60;;;;;;;;;;4970176;28;20030;-67
2023/04/07 13:40:05;;;;;;;10.30;5.28;;;;;;;;;;4974744;28;20481;-68
2023/04/07 13:42:30;;;;;;;9.07;4.65;;;;;;;;;;4976150;28;20031;-67
2023/04/07 13:44:55;;;;;;;9.95;4.88;;;;;;;;;;4971055;28;20024;-67
2023/04/07 13:47:21;;;;;;;9.57;5.22;;;;;;;;;;4959224;28;20089;-67
2023/04/07 13:49:46;;;;;;;8.40;4.80;;;;;;;;;;4970895;28;20046;-67
2023/04/07 13:52:12;;;;;;;9.23;4.78;;;;;;;;;;4970831;28;20026;-69
2023/04/07 13:54:38;;;;;;;9.10;5.13;;;;;;;;;;4977008;28;20478;-67
2023/04/07 13:57:03;;;;;;;9.23;4.65;;;;;;;;;;4970596;28;20042;-69
2023/04/07 13:59:28;;;;;;;11.27;5.03;;;;;;;;;;4967021;28;20056;-66
2023/04/07 14:01:53;;;;;;;10.00;4.88;;;;;;;;;;4977521;28;20109;-66
2023/04/07 14:04:18;;;;;;;9.43;5.27;;;;;;;;;;4971994;28;20325;-67
2023/04/07 14:06:44;;;;;;;10.10;5.47;;;;;;;;;;4969161;28;20393;-68
2023/04/07 14:09:09;;;;;;;14.23;6.73;;;;;;;;;;4971968;28;20027;-69
2023/04/07 14:11:34;;;;;;;10.43;5.50;;;;;;;;;;4968184;28;20486;-69
2023/04/07 14:14:00;;;;;;;12.00;6.00;;;;;;;;;;4972767;28;20098;-67
2023/04/07 14:16:26;;;;;;;10.57;5.28;;;;;;;;;;4969837;28;20066;-68
2023/04/07 14:18:51;;;;;;;10.60;4.88;;;;;;;;;;4971604;28;20031;-68
2023/04/07 14:21:16;;;;;;;9.13;4.80;;;;;;;;;;4967632;28;20018;-68
2023/04/07 14:23:41;;;;;;;8.95;4.70;;;;;;;;;;4960270;28;20035;-67
2023/04/07 14:26:10;;;;;;;9.30;4.82;;;;;;;;;;4970159;28;20503;-67
2023/04/07 14:28:36;;;;;;;9.43;4.50;;;;;;;;;;4964137;28;20129;-66
2023/04/07 14:31:01;;;;;;;10.40;4.57;;;;;;;;;;4971619;28;20499;-66
2023/04/07 14:33:26;;;;;;;9.97;4.17;;;;;;;;;;4963691;28;20034;-66